sensor_id;sensor_type;location;lat;lon;timestamp;temperature;humidity
54960;DHT22;40860;51.710;8.736;2022-08-11T00:02:38;20.40;51.80
54960;DHT22;40860;51.710;8.736;2022-08-11T00:06:46;20.20;52.30
54960;DHT22;40860;51.710;8.736;2022-08-11T00:10:51;20.10;52.80
54960;DHT22;40860;51.710;8.736;2022-08-11T00:14:58;19.90;53.20
54960;DHT22;40860;51.710;8.736;2022-08-11T00:19:03;19.70;53.80
54960;DHT22;40860;51.710;8.736;2022-08-11T00:23:08;19.60;54.10
54960;DHT22;40860;51.710;8.736;2022-08-11T00:27:11;19.40;54.90
54960;DHT22;40860;51.710;8.736;2022-08-11T00:31:22;19.30;55.50
54960;DHT22;40860;51.710;8.736;2022-08-11T00:35:30;19.20;56.00
54960;DHT22;40860;51.710;8.736;2022-08-11T00:39:54;19.10;56.40
54960;DHT22;40860;51.710;8.736;2022-08-11T00:44:09;19.00;56.30
54960;DHT22;40860;51.710;8.736;2022-08-11T00:48:22;18.90;57.00
54960;DHT22;40860;51.710;8.736;2022-08-11T00:52:53;18.80;57.20
54960;DHT22;40860;51.710;8.736;2022-08-11T00:57:20;18.70;58.00
54960;DHT22;40860;51.710;8.736;2022-08-11T01:01:53;18.60;58.30
54960;DHT22;40860;51.710;8.736;2022-08-11T01:06:37;18.50;58.60
54960;DHT22;40860;51.710;8.736;2022-08-11T01:11:36;18.40;59.00
54960;DHT22;40860;51.710;8.736;2022-08-11T01:16:07;18.40;59.20
54960;DHT22;40860;51.710;8.736;2022-08-11T01:25:29;18.30;59.40
54960;DHT22;40860;51.710;8.736;2022-08-11T01:30:24;18.20;60.30
54960;DHT22;40860;51.710;8.736;2022-08-11T01:35:19;18.00;61.20
54960;DHT22;40860;51.710;8.736;2022-08-11T01:40:08;17.90;62.40
54960;DHT22;40860;51.710;8.736;2022-08-11T01:44:35;17.80;63.50
54960;DHT22;40860;51.710;8.736;2022-08-11T01:48:54;17.70;63.10
54960;DHT22;40860;51.710;8.736;2022-08-11T01:53:10;17.60;63.70
54960;DHT22;40860;51.710;8.736;2022-08-11T01:57:29;17.50;64.50
54960;DHT22;40860;51.710;8.736;2022-08-11T02:01:40;17.50;65.00
54960;DHT22;40860;51.710;8.736;2022-08-11T02:05:56;17.40;65.20
54960;DHT22;40860;51.710;8.736;2022-08-11T02:10:15;17.40;65.70
54960;DHT22;40860;51.710;8.736;2022-08-11T02:14:48;17.30;66.00
54960;DHT22;40860;51.710;8.736;2022-08-11T02:19:11;17.30;66.70
54960;DHT22;40860;51.710;8.736;2022-08-11T02:23:42;17.20;66.90
54960;DHT22;40860;51.710;8.736;2022-08-11T02:28:21;17.10;66.90
54960;DHT22;40860;51.710;8.736;2022-08-11T02:32:33;17.10;67.40
54960;DHT22;40860;51.710;8.736;2022-08-11T02:36:58;17.10;68.10
54960;DHT22;40860;51.710;8.736;2022-08-11T02:41:14;17.00;68.30
54960;DHT22;40860;51.710;8.736;2022-08-11T02:45:50;17.00;68.40
54960;DHT22;40860;51.710;8.736;2022-08-11T02:49:59;16.90;68.90
54960;DHT22;40860;51.710;8.736;2022-08-11T02:54:14;16.90;69.70
54960;DHT22;40860;51.710;8.736;2022-08-11T02:58:32;16.80;70.00
54960;DHT22;40860;51.710;8.736;2022-08-11T03:03:09;16.70;70.30
54960;DHT22;40860;51.710;8.736;2022-08-11T03:07:22;16.70;70.60
54960;DHT22;40860;51.710;8.736;2022-08-11T03:11:41;16.70;71.10
54960;DHT22;40860;51.710;8.736;2022-08-11T03:16:12;16.60;71.30
54960;DHT22;40860;51.710;8.736;2022-08-11T03:20:43;16.60;71.40
54960;DHT22;40860;51.710;8.736;2022-08-11T03:24:57;16.60;71.90
54960;DHT22;40860;51.710;8.736;2022-08-11T03:29:05;16.50;72.00
54960;DHT22;40860;51.710;8.736;2022-08-11T03:33:18;16.40;72.00
54960;DHT22;40860;51.710;8.736;2022-08-11T03:37:50;16.40;72.80
54960;DHT22;40860;51.710;8.736;2022-08-11T03:42:05;16.30;72.80
54960;DHT22;40860;51.710;8.736;2022-08-11T03:46:13;16.30;73.10
54960;DHT22;40860;51.710;8.736;2022-08-11T03:50:27;16.30;73.80
54960;DHT22;40860;51.710;8.736;2022-08-11T03:54:41;16.20;73.80
54960;DHT22;40860;51.710;8.736;2022-08-11T03:59:27;16.20;73.50
54960;DHT22;40860;51.710;8.736;2022-08-11T04:03:59;16.20;74.10
54960;DHT22;40860;51.710;8.736;2022-08-11T04:08:35;16.20;73.80
54960;DHT22;40860;51.710;8.736;2022-08-11T04:17:45;16.20;73.80
54960;DHT22;40860;51.710;8.736;2022-08-11T04:22:04;16.20;73.90
54960;DHT22;40860;51.710;8.736;2022-08-11T04:26:47;16.20;73.90
54960;DHT22;40860;51.710;8.736;2022-08-11T04:31:10;16.20;74.40
54960;DHT22;40860;51.710;8.736;2022-08-11T04:35:49;16.20;74.60
54960;DHT22;40860;51.710;8.736;2022-08-11T04:49:54;16.30;74.20
54960;DHT22;40860;51.710;8.736;2022-08-11T04:54:28;16.50;72.60
54960;DHT22;40860;51.710;8.736;2022-08-11T05:04:06;16.70;72.70
54960;DHT22;40860;51.710;8.736;2022-08-11T05:08:55;16.70;73.80
54960;DHT22;40860;51.710;8.736;2022-08-11T05:13:07;16.80;74.60
54960;DHT22;40860;51.710;8.736;2022-08-11T05:17:36;16.90;73.20
54960;DHT22;40860;51.710;8.736;2022-08-11T05:21:57;17.10;72.80
54960;DHT22;40860;51.710;8.736;2022-08-11T05:26:18;17.20;72.40
54960;DHT22;40860;51.710;8.736;2022-08-11T05:30:56;17.30;72.20
54960;DHT22;40860;51.710;8.736;2022-08-11T05:35:23;22.90;62.50
54960;DHT22;40860;51.710;8.736;2022-08-11T05:39:48;23.90;59.00
54960;DHT22;40860;51.710;8.736;2022-08-11T05:44:17;24.20;53.20
54960;DHT22;40860;51.710;8.736;2022-08-11T05:48:40;22.80;53.50
54960;DHT22;40860;51.710;8.736;2022-08-11T05:53:03;22.00;55.30
54960;DHT22;40860;51.710;8.736;2022-08-11T05:57:30;21.50;55.80
54960;DHT22;40860;51.710;8.736;2022-08-11T06:01:52;21.10;58.20
54960;DHT22;40860;51.710;8.736;2022-08-11T06:06:07;20.90;59.00
54960;DHT22;40860;51.710;8.736;2022-08-11T06:10:11;20.80;59.30
54960;DHT22;40860;51.710;8.736;2022-08-11T06:14:15;20.80;59.70
54960;DHT22;40860;51.710;8.736;2022-08-11T06:18:20;20.90;58.70
54960;DHT22;40860;51.710;8.736;2022-08-11T06:22:25;20.90;58.40
54960;DHT22;40860;51.710;8.736;2022-08-11T06:26:29;20.90;58.00
54960;DHT22;40860;51.710;8.736;2022-08-11T06:30:50;20.90;65.10
54960;DHT22;40860;51.710;8.736;2022-08-11T06:35:17;21.00;64.70
54960;DHT22;40860;51.710;8.736;2022-08-11T06:39:26;21.10;62.20
54960;DHT22;40860;51.710;8.736;2022-08-11T06:43:40;21.40;62.00
54960;DHT22;40860;51.710;8.736;2022-08-11T06:47:58;21.40;60.90
54960;DHT22;40860;51.710;8.736;2022-08-11T06:52:04;21.40;58.00
54960;DHT22;40860;51.710;8.736;2022-08-11T06:56:31;21.40;59.50
54960;DHT22;40860;51.710;8.736;2022-08-11T07:01:13;21.60;56.50
54960;DHT22;40860;51.710;8.736;2022-08-11T07:05:21;22.10;54.60
54960;DHT22;40860;51.710;8.736;2022-08-11T07:09:37;22.40;54.00
54960;DHT22;40860;51.710;8.736;2022-08-11T07:14:04;22.60;54.40
54960;DHT22;40860;51.710;8.736;2022-08-11T07:18:31;23.20;52.20
54960;DHT22;40860;51.710;8.736;2022-08-11T07:22:55;24.20;49.30
54960;DHT22;40860;51.710;8.736;2022-08-11T07:27:18;24.30;48.80
54960;DHT22;40860;51.710;8.736;2022-08-11T07:31:43;24.20;48.10
54960;DHT22;40860;51.710;8.736;2022-08-11T07:35:52;24.30;49.40
54960;DHT22;40860;51.710;8.736;2022-08-11T07:39:58;25.30;47.50
54960;DHT22;40860;51.710;8.736;2022-08-11T07:44:01;26.30;45.60
54960;DHT22;40860;51.710;8.736;2022-08-11T07:48:12;27.20;44.90
54960;DHT22;40860;51.710;8.736;2022-08-11T07:52:35;28.50;43.20
54960;DHT22;40860;51.710;8.736;2022-08-11T07:56:41;28.80;40.90
54960;DHT22;40860;51.710;8.736;2022-08-11T08:01:04;29.30;40.10
54960;DHT22;40860;51.710;8.736;2022-08-11T08:05:26;29.60;40.10
54960;DHT22;40860;51.710;8.736;2022-08-11T08:09:47;29.40;39.30
54960;DHT22;40860;51.710;8.736;2022-08-11T08:14:09;29.30;39.30
54960;DHT22;40860;51.710;8.736;2022-08-11T08:18:32;29.50;38.80
54960;DHT22;40860;51.710;8.736;2022-08-11T08:22:37;29.90;38.80
54960;DHT22;40860;51.710;8.736;2022-08-11T08:26:47;30.00;38.10
54960;DHT22;40860;51.710;8.736;2022-08-11T08:31:00;29.70;38.80
54960;DHT22;40860;51.710;8.736;2022-08-11T08:35:03;30.10;37.90
54960;DHT22;40860;51.710;8.736;2022-08-11T08:39:08;30.20;38.40
54960;DHT22;40860;51.710;8.736;2022-08-11T08:43:14;30.60;37.30
54960;DHT22;40860;51.710;8.736;2022-08-11T08:47:19;30.80;36.50
54960;DHT22;40860;51.710;8.736;2022-08-11T08:51:43;30.80;36.70
54960;DHT22;40860;51.710;8.736;2022-08-11T08:56:09;30.70;36.80
54960;DHT22;40860;51.710;8.736;2022-08-11T09:00:14;31.10;36.50
54960;DHT22;40860;51.710;8.736;2022-08-11T09:04:24;31.30;36.60
54960;DHT22;40860;51.710;8.736;2022-08-11T09:08:29;31.30;35.90
54960;DHT22;40860;51.710;8.736;2022-08-11T09:12:34;30.90;35.20
54960;DHT22;40860;51.710;8.736;2022-08-11T09:16:40;30.60;36.30
54960;DHT22;40860;51.710;8.736;2022-08-11T09:20:43;30.80;36.60
54960;DHT22;40860;51.710;8.736;2022-08-11T09:24:47;31.10;35.40
54960;DHT22;40860;51.710;8.736;2022-08-11T09:29:10;31.20;35.90
54960;DHT22;40860;51.710;8.736;2022-08-11T09:33:15;31.00;34.30
54960;DHT22;40860;51.710;8.736;2022-08-11T09:37:20;30.60;35.20
54960;DHT22;40860;51.710;8.736;2022-08-11T09:41:57;30.50;36.40
54960;DHT22;40860;51.710;8.736;2022-08-11T09:46:06;30.70;35.00
54960;DHT22;40860;51.710;8.736;2022-08-11T09:50:10;30.80;34.80
54960;DHT22;40860;51.710;8.736;2022-08-11T09:54:17;30.80;35.10
54960;DHT22;40860;51.710;8.736;2022-08-11T09:58:20;31.20;35.00
54960;DHT22;40860;51.710;8.736;2022-08-11T10:02:47;31.10;33.40
54960;DHT22;40860;51.710;8.736;2022-08-11T10:06:54;31.00;33.60
54960;DHT22;40860;51.710;8.736;2022-08-11T10:11:07;30.70;34.20
54960;DHT22;40860;51.710;8.736;2022-08-11T10:15:15;30.70;33.80
54960;DHT22;40860;51.710;8.736;2022-08-11T10:19:41;31.10;34.70
54960;DHT22;40860;51.710;8.736;2022-08-11T10:24:05;31.30;33.60
54960;DHT22;40860;51.710;8.736;2022-08-11T10:28:31;31.40;33.40
54960;DHT22;40860;51.710;8.736;2022-08-11T10:32:57;31.50;32.50
54960;DHT22;40860;51.710;8.736;2022-08-11T10:37:40;31.20;32.70
54960;DHT22;40860;51.710;8.736;2022-08-11T10:42:05;31.70;33.70
54960;DHT22;40860;51.710;8.736;2022-08-11T10:46:59;31.80;33.50
54960;DHT22;40860;51.710;8.736;2022-08-11T10:51:21;32.10;33.10
54960;DHT22;40860;51.710;8.736;2022-08-11T10:55:54;31.90;33.30
54960;DHT22;40860;51.710;8.736;2022-08-11T11:00:15;31.90;33.50
54960;DHT22;40860;51.710;8.736;2022-08-11T11:04:23;31.80;33.80
54960;DHT22;40860;51.710;8.736;2022-08-11T11:08:32;31.90;33.30
54960;DHT22;40860;51.710;8.736;2022-08-11T11:13:03;31.40;33.50
54960;DHT22;40860;51.710;8.736;2022-08-11T11:17:28;31.30;32.90
54960;DHT22;40860;51.710;8.736;2022-08-11T11:21:52;31.00;33.70
54960;DHT22;40860;51.710;8.736;2022-08-11T11:26:11;30.80;33.90
54960;DHT22;40860;51.710;8.736;2022-08-11T11:30:35;30.90;34.90
54960;DHT22;40860;51.710;8.736;2022-08-11T11:34:50;31.20;34.40
54960;DHT22;40860;51.710;8.736;2022-08-11T11:38:58;31.50;34.40
54960;DHT22;40860;51.710;8.736;2022-08-11T11:43:03;31.80;34.00
54960;DHT22;40860;51.710;8.736;2022-08-11T11:47:10;31.70;33.30
54960;DHT22;40860;51.710;8.736;2022-08-11T11:51:13;31.70;33.10
54960;DHT22;40860;51.710;8.736;2022-08-11T11:55:17;31.50;33.30
54960;DHT22;40860;51.710;8.736;2022-08-11T11:59:20;31.60;33.60
54960;DHT22;40860;51.710;8.736;2022-08-11T12:03:42;31.50;32.80
54960;DHT22;40860;51.710;8.736;2022-08-11T12:07:47;31.40;33.00
54960;DHT22;40860;51.710;8.736;2022-08-11T12:12:14;31.80;33.40
54960;DHT22;40860;51.710;8.736;2022-08-11T12:16:38;32.00;31.90
54960;DHT22;40860;51.710;8.736;2022-08-11T12:20:43;31.80;32.00
54960;DHT22;40860;51.710;8.736;2022-08-11T12:24:46;31.60;32.40
54960;DHT22;40860;51.710;8.736;2022-08-11T12:29:09;31.40;32.20
54960;DHT22;40860;51.710;8.736;2022-08-11T12:33:13;31.40;33.00
54960;DHT22;40860;51.710;8.736;2022-08-11T12:37:29;31.40;32.80
54960;DHT22;40860;51.710;8.736;2022-08-11T12:41:34;31.50;32.10
54960;DHT22;40860;51.710;8.736;2022-08-11T12:45:59;31.70;31.60
54960;DHT22;40860;51.710;8.736;2022-08-11T12:50:02;31.80;31.70
54960;DHT22;40860;51.710;8.736;2022-08-11T12:54:28;31.70;32.20
54960;DHT22;40860;51.710;8.736;2022-08-11T12:58:34;31.40;32.40
54960;DHT22;40860;51.710;8.736;2022-08-11T13:02:39;31.40;32.50
54960;DHT22;40860;51.710;8.736;2022-08-11T13:07:00;31.30;32.70
54960;DHT22;40860;51.710;8.736;2022-08-11T13:11:06;31.40;32.80
54960;DHT22;40860;51.710;8.736;2022-08-11T13:15:48;31.60;32.40
54960;DHT22;40860;51.710;8.736;2022-08-11T13:19:53;31.70;32.30
54960;DHT22;40860;51.710;8.736;2022-08-11T13:23:56;31.70;31.90
54960;DHT22;40860;51.710;8.736;2022-08-11T13:28:04;31.60;32.50
54960;DHT22;40860;51.710;8.736;2022-08-11T13:32:08;31.80;32.20
54960;DHT22;40860;51.710;8.736;2022-08-11T13:36:12;31.70;31.70
54960;DHT22;40860;51.710;8.736;2022-08-11T13:40:19;31.70;32.20
54960;DHT22;40860;51.710;8.736;2022-08-11T13:44:44;31.90;31.60
54960;DHT22;40860;51.710;8.736;2022-08-11T13:48:48;31.70;32.50
54960;DHT22;40860;51.710;8.736;2022-08-11T13:53:01;31.70;32.10
54960;DHT22;40860;51.710;8.736;2022-08-11T13:57:06;31.80;32.90
54960;DHT22;40860;51.710;8.736;2022-08-11T14:01:17;31.90;31.50
54960;DHT22;40860;51.710;8.736;2022-08-11T14:05:43;32.10;31.20
54960;DHT22;40860;51.710;8.736;2022-08-11T14:09:54;32.50;30.70
54960;DHT22;40860;51.710;8.736;2022-08-11T14:13:58;32.90;30.90
54960;DHT22;40860;51.710;8.736;2022-08-11T14:18:06;33.10;30.70
54960;DHT22;40860;51.710;8.736;2022-08-11T14:22:11;33.20;31.00
54960;DHT22;40860;51.710;8.736;2022-08-11T14:26:16;33.70;31.80
54960;DHT22;40860;51.710;8.736;2022-08-11T14:30:27;33.90;30.70
54960;DHT22;40860;51.710;8.736;2022-08-11T14:34:51;34.20;30.00
54960;DHT22;40860;51.710;8.736;2022-08-11T14:38:55;34.70;30.20
54960;DHT22;40860;51.710;8.736;2022-08-11T14:42:58;35.00;29.90
54960;DHT22;40860;51.710;8.736;2022-08-11T14:47:41;34.70;29.90
54960;DHT22;40860;51.710;8.736;2022-08-11T14:51:50;35.20;30.50
54960;DHT22;40860;51.710;8.736;2022-08-11T14:55:56;35.20;29.70
54960;DHT22;40860;51.710;8.736;2022-08-11T15:00:16;34.70;29.40
54960;DHT22;40860;51.710;8.736;2022-08-11T15:04:20;34.30;30.20
54960;DHT22;40860;51.710;8.736;2022-08-11T15:08:39;34.20;30.20
54960;DHT22;40860;51.710;8.736;2022-08-11T15:12:57;34.10;29.90
54960;DHT22;40860;51.710;8.736;2022-08-11T15:17:01;34.20;29.80
54960;DHT22;40860;51.710;8.736;2022-08-11T15:21:10;34.70;30.00
54960;DHT22;40860;51.710;8.736;2022-08-11T15:25:33;34.80;29.60
54960;DHT22;40860;51.710;8.736;2022-08-11T15:29:38;34.50;29.40
54960;DHT22;40860;51.710;8.736;2022-08-11T15:34:02;34.80;29.50
54960;DHT22;40860;51.710;8.736;2022-08-11T15:38:24;34.70;29.60
54960;DHT22;40860;51.710;8.736;2022-08-11T15:42:30;34.30;29.40
54960;DHT22;40860;51.710;8.736;2022-08-11T15:46:54;34.70;29.40
54960;DHT22;40860;51.710;8.736;2022-08-11T15:51:05;35.20;28.90
54960;DHT22;40860;51.710;8.736;2022-08-11T15:55:10;35.50;29.00
54960;DHT22;40860;51.710;8.736;2022-08-11T15:59:17;34.70;28.50
54960;DHT22;40860;51.710;8.736;2022-08-11T16:03:49;34.30;29.00
54960;DHT22;40860;51.710;8.736;2022-08-11T16:08:16;34.20;29.40
54960;DHT22;40860;51.710;8.736;2022-08-11T16:12:36;33.80;29.50
54960;DHT22;40860;51.710;8.736;2022-08-11T16:16:41;33.70;29.70
54960;DHT22;40860;51.710;8.736;2022-08-11T16:20:44;33.30;29.90
54960;DHT22;40860;51.710;8.736;2022-08-11T16:24:48;33.10;29.70
54960;DHT22;40860;51.710;8.736;2022-08-11T16:29:13;33.20;30.00
54960;DHT22;40860;51.710;8.736;2022-08-11T16:33:19;33.40;30.20
54960;DHT22;40860;51.710;8.736;2022-08-11T16:37:45;33.50;30.40
54960;DHT22;40860;51.710;8.736;2022-08-11T16:42:06;33.10;30.80
54960;DHT22;40860;51.710;8.736;2022-08-11T16:46:49;32.80;31.00
54960;DHT22;40860;51.710;8.736;2022-08-11T16:51:02;32.60;31.40
54960;DHT22;40860;51.710;8.736;2022-08-11T16:55:07;32.50;31.50
54960;DHT22;40860;51.710;8.736;2022-08-11T16:59:16;32.20;31.60
54960;DHT22;40860;51.710;8.736;2022-08-11T17:03:20;32.00;32.10
54960;DHT22;40860;51.710;8.736;2022-08-11T17:07:42;31.90;31.80
54960;DHT22;40860;51.710;8.736;2022-08-11T17:12:05;31.60;31.70
54960;DHT22;40860;51.710;8.736;2022-08-11T17:16:31;31.20;32.10
54960;DHT22;40860;51.710;8.736;2022-08-11T17:20:35;31.00;33.20
54960;DHT22;40860;51.710;8.736;2022-08-11T17:24:47;30.70;33.50
54960;DHT22;40860;51.710;8.736;2022-08-11T17:28:55;30.40;33.80
54960;DHT22;40860;51.710;8.736;2022-08-11T17:32:59;30.20;34.20
54960;DHT22;40860;51.710;8.736;2022-08-11T17:37:20;30.00;34.60
54960;DHT22;40860;51.710;8.736;2022-08-11T17:41:26;29.90;34.70
54960;DHT22;40860;51.710;8.736;2022-08-11T17:45:46;29.80;34.90
54960;DHT22;40860;51.710;8.736;2022-08-11T17:50:10;29.60;35.10
54960;DHT22;40860;51.710;8.736;2022-08-11T17:54:20;29.50;35.50
54960;DHT22;40860;51.710;8.736;2022-08-11T17:58:44;29.40;36.10
54960;DHT22;40860;51.710;8.736;2022-08-11T18:03:06;29.40;35.60
54960;DHT22;40860;51.710;8.736;2022-08-11T18:07:27;29.30;35.80
54960;DHT22;40860;51.710;8.736;2022-08-11T18:11:49;29.10;36.20
54960;DHT22;40860;51.710;8.736;2022-08-11T18:16:14;29.00;36.10
54960;DHT22;40860;51.710;8.736;2022-08-11T18:20:35;28.90;36.40
54960;DHT22;40860;51.710;8.736;2022-08-11T18:24:59;28.80;36.40
54960;DHT22;40860;51.710;8.736;2022-08-11T18:29:21;28.70;36.70
54960;DHT22;40860;51.710;8.736;2022-08-11T18:33:48;28.60;36.80
54960;DHT22;40860;51.710;8.736;2022-08-11T18:38:11;28.40;37.00
54960;DHT22;40860;51.710;8.736;2022-08-11T18:42:37;28.30;37.30
54960;DHT22;40860;51.710;8.736;2022-08-11T18:47:03;28.10;37.50
54960;DHT22;40860;51.710;8.736;2022-08-11T18:51:32;28.00;37.90
54960;DHT22;40860;51.710;8.736;2022-08-11T18:55:54;27.90;38.10
54960;DHT22;40860;51.710;8.736;2022-08-11T19:00:16;27.80;38.20
54960;DHT22;40860;51.710;8.736;2022-08-11T19:04:37;27.70;38.40
54960;DHT22;40860;51.710;8.736;2022-08-11T19:09:03;27.50;38.50
54960;DHT22;40860;51.710;8.736;2022-08-11T19:13:25;27.40;38.70
54960;DHT22;40860;51.710;8.736;2022-08-11T19:17:49;27.20;39.00
54960;DHT22;40860;51.710;8.736;2022-08-11T19:22:11;27.10;39.20
54960;DHT22;40860;51.710;8.736;2022-08-11T19:26:34;26.90;39.40
54960;DHT22;40860;51.710;8.736;2022-08-11T19:30:55;26.80;39.70
54960;DHT22;40860;51.710;8.736;2022-08-11T19:35:16;26.60;39.90
54960;DHT22;40860;51.710;8.736;2022-08-11T19:39:39;26.50;40.30
54960;DHT22;40860;51.710;8.736;2022-08-11T19:44:03;26.40;40.40
54960;DHT22;40860;51.710;8.736;2022-08-11T19:48:24;26.30;40.60
54960;DHT22;40860;51.710;8.736;2022-08-11T19:52:46;26.20;40.90
54960;DHT22;40860;51.710;8.736;2022-08-11T19:57:19;26.00;41.00
54960;DHT22;40860;51.710;8.736;2022-08-11T20:01:42;26.00;40.90
54960;DHT22;40860;51.710;8.736;2022-08-11T20:06:16;25.90;41.40
54960;DHT22;40860;51.710;8.736;2022-08-11T20:10:38;25.80;41.00
54960;DHT22;40860;51.710;8.736;2022-08-11T20:14:59;25.70;41.50
54960;DHT22;40860;51.710;8.736;2022-08-11T20:19:23;25.50;42.10
54960;DHT22;40860;51.710;8.736;2022-08-11T20:23:59;25.30;43.00
54960;DHT22;40860;51.710;8.736;2022-08-11T20:28:20;25.10;42.60
54960;DHT22;40860;51.710;8.736;2022-08-11T20:32:41;25.00;43.00
54960;DHT22;40860;51.710;8.736;2022-08-11T20:37:03;24.80;43.60
54960;DHT22;40860;51.710;8.736;2022-08-11T20:41:26;24.60;44.30
54960;DHT22;40860;51.710;8.736;2022-08-11T20:46:01;24.40;44.70
54960;DHT22;40860;51.710;8.736;2022-08-11T20:50:22;24.10;45.30
54960;DHT22;40860;51.710;8.736;2022-08-11T20:54:48;24.00;45.10
54960;DHT22;40860;51.710;8.736;2022-08-11T20:59:21;24.00;45.10
54960;DHT22;40860;51.710;8.736;2022-08-11T21:03:57;24.00;45.50
54960;DHT22;40860;51.710;8.736;2022-08-11T21:08:24;23.90;45.40
54960;DHT22;40860;51.710;8.736;2022-08-11T21:12:48;23.80;45.40
54960;DHT22;40860;51.710;8.736;2022-08-11T21:17:30;23.80;45.50
54960;DHT22;40860;51.710;8.736;2022-08-11T21:22:14;23.60;45.60
54960;DHT22;40860;51.710;8.736;2022-08-11T21:26:41;23.60;45.90
54960;DHT22;40860;51.710;8.736;2022-08-11T21:31:06;23.50;46.10
54960;DHT22;40860;51.710;8.736;2022-08-11T21:35:28;23.40;46.20
54960;DHT22;40860;51.710;8.736;2022-08-11T21:39:49;23.30;46.20
54960;DHT22;40860;51.710;8.736;2022-08-11T21:44:20;23.30;46.20
54960;DHT22;40860;51.710;8.736;2022-08-11T21:48:43;23.20;46.20
54960;DHT22;40860;51.710;8.736;2022-08-11T21:53:05;23.20;46.20
54960;DHT22;40860;51.710;8.736;2022-08-11T21:57:27;23.10;46.30
54960;DHT22;40860;51.710;8.736;2022-08-11T22:01:52;23.10;46.30
54960;DHT22;40860;51.710;8.736;2022-08-11T22:06:15;23.10;46.90
54960;DHT22;40860;51.710;8.736;2022-08-11T22:10:37;23.00;46.50
54960;DHT22;40860;51.710;8.736;2022-08-11T22:14:59;22.90;46.50
54960;DHT22;40860;51.710;8.736;2022-08-11T22:19:20;22.90;46.70
54960;DHT22;40860;51.710;8.736;2022-08-11T22:23:44;22.80;46.80
54960;DHT22;40860;51.710;8.736;2022-08-11T22:28:08;22.80;47.10
54960;DHT22;40860;51.710;8.736;2022-08-11T22:32:29;22.70;47.30
54960;DHT22;40860;51.710;8.736;2022-08-11T22:36:51;22.60;47.80
54960;DHT22;40860;51.710;8.736;2022-08-11T22:41:29;22.50;47.50
54960;DHT22;40860;51.710;8.736;2022-08-11T22:45:50;22.50;47.90
54960;DHT22;40860;51.710;8.736;2022-08-11T22:50:11;22.40;47.80
54960;DHT22;40860;51.710;8.736;2022-08-11T22:54:33;22.40;48.10
54960;DHT22;40860;51.710;8.736;2022-08-11T22:58:56;22.30;48.40
54960;DHT22;40860;51.710;8.736;2022-08-11T23:03:17;22.10;48.60
54960;DHT22;40860;51.710;8.736;2022-08-11T23:07:40;22.00;49.00
54960;DHT22;40860;51.710;8.736;2022-08-11T23:12:01;22.00;48.50
54960;DHT22;40860;51.710;8.736;2022-08-11T23:16:26;22.00;48.80
54960;DHT22;40860;51.710;8.736;2022-08-11T23:20:47;22.00;48.50
54960;DHT22;40860;51.710;8.736;2022-08-11T23:25:08;21.90;48.40
54960;DHT22;40860;51.710;8.736;2022-08-11T23:29:36;22.00;48.40
54960;DHT22;40860;51.710;8.736;2022-08-11T23:33:58;21.90;48.90
54960;DHT22;40860;51.710;8.736;2022-08-11T23:38:40;21.70;49.40
54960;DHT22;40860;51.710;8.736;2022-08-11T23:43:01;21.50;49.70
54960;DHT22;40860;51.710;8.736;2022-08-11T23:47:23;21.40;50.60
54960;DHT22;40860;51.710;8.736;2022-08-11T23:51:53;21.20;51.30
54960;DHT22;40860;51.710;8.736;2022-08-11T23:56:14;21.00;52.30
